Terminal Aerodrome Forecast
Issued by NWS

Home | Current Version | Previous Version | Text Only | Print | Product List | Glossary On
Versions: 1 2 3 4 5 6 7 8 9 10 11 12 13
000
FTUS45 KABQ 262341
TAFLVS
TAF
KLVS 262341Z 2700/2724 23015G23KT P6SM VCSH BKN090
     FM270100 24008KT P6SM SCT080
     FM270500 VRB06KT P6SM FEW080
     FM271400 20012G18KT P6SM BKN150
     FM271900 21018G25KT P6SM SCT080 BKN150=

USA.gov is the U.S. government's official web portal to all federal, state and local government web resources and services.